sensor_id;sensor_type;location;lat;lon;timestamp;pressure;altitude;pressure_sealevel;temperature;humidity
66801;BME280;53703;50.326;19.122;2023-02-10T00:01:32;100356.36;;;17.31;37.28
66801;BME280;53703;50.326;19.122;2023-02-10T00:04:26;100360.42;;;17.24;37.52
66801;BME280;53703;50.326;19.122;2023-02-10T00:07:20;100359.63;;;17.39;37.29
66801;BME280;53703;50.326;19.122;2023-02-10T00:10:14;100358.64;;;17.26;37.46
66801;BME280;53703;50.326;19.122;2023-02-10T00:13:08;100340.14;;;17.27;37.37
66801;BME280;53703;50.326;19.122;2023-02-10T00:16:04;100331.33;;;17.23;37.47
66801;BME280;53703;50.326;19.122;2023-02-10T00:18:59;100337.42;;;17.27;37.37
66801;BME280;53703;50.326;19.122;2023-02-10T00:21:52;100330.98;;;17.24;37.43
66801;BME280;53703;50.326;19.122;2023-02-10T00:24:46;100320.02;;;17.23;37.38
66801;BME280;53703;50.326;19.122;2023-02-10T00:27:40;100320.65;;;17.25;37.59
66801;BME280;53703;50.326;19.122;2023-02-10T00:30:34;100321.27;;;17.30;37.23
66801;BME280;53703;50.326;19.122;2023-02-10T00:33:28;100320.90;;;17.26;37.41
66801;BME280;53703;50.326;19.122;2023-02-10T00:36:23;100317.96;;;17.26;37.24
66801;BME280;53703;50.326;19.122;2023-02-10T00:39:18;100321.52;;;17.26;37.29
66801;BME280;53703;50.326;19.122;2023-02-10T00:42:12;100327.00;;;17.27;37.25
66801;BME280;53703;50.326;19.122;2023-02-10T00:45:07;100326.05;;;17.27;37.33
66801;BME280;53703;50.326;19.122;2023-02-10T00:47:45;100326.52;;;17.26;37.42
66801;BME280;53703;50.326;19.122;2023-02-10T00:50:41;100328.88;;;17.27;37.51
66801;BME280;53703;50.326;19.122;2023-02-10T00:53:36;100333.25;;;17.30;37.21
66801;BME280;53703;50.326;19.122;2023-02-10T00:56:30;100334.98;;;17.25;37.31
66801;BME280;53703;50.326;19.122;2023-02-10T00:59:24;100339.25;;;17.28;37.30
66801;BME280;53703;50.326;19.122;2023-02-10T01:02:19;100335.11;;;17.28;37.29
66801;BME280;53703;50.326;19.122;2023-02-10T01:05:13;100330.92;;;17.24;37.34
66801;BME280;53703;50.326;19.122;2023-02-10T01:08:07;100328.56;;;17.20;37.50
66801;BME280;53703;50.326;19.122;2023-02-10T01:11:06;100324.15;;;17.25;37.36
66801;BME280;53703;50.326;19.122;2023-02-10T01:14:00;100319.16;;;17.21;37.37
66801;BME280;53703;50.326;19.122;2023-02-10T01:16:54;100321.73;;;17.22;37.37
66801;BME280;53703;50.326;19.122;2023-02-10T01:19:48;100323.59;;;17.20;37.32
66801;BME280;53703;50.326;19.122;2023-02-10T01:22:43;100322.73;;;17.19;37.31
66801;BME280;53703;50.326;19.122;2023-02-10T01:25:38;100323.75;;;17.23;37.26
66801;BME280;53703;50.326;19.122;2023-02-10T01:28:33;100320.78;;;17.20;37.34
66801;BME280;53703;50.326;19.122;2023-02-10T01:31:29;100312.27;;;17.18;37.25
66801;BME280;53703;50.326;19.122;2023-02-10T01:34:22;100308.55;;;17.26;37.03
66801;BME280;53703;50.326;19.122;2023-02-10T01:37:16;100302.81;;;17.16;37.22
66801;BME280;53703;50.326;19.122;2023-02-10T01:40:12;100294.92;;;17.16;37.26
66801;BME280;53703;50.326;19.122;2023-02-10T01:43:14;100293.64;;;17.16;37.27
66801;BME280;53703;50.326;19.122;2023-02-10T01:46:09;100298.20;;;17.17;37.19
66801;BME280;53703;50.326;19.122;2023-02-10T01:49:06;100309.67;;;17.15;37.32
66801;BME280;53703;50.326;19.122;2023-02-10T01:52:05;100306.64;;;17.18;37.38
66801;BME280;53703;50.326;19.122;2023-02-10T01:55:05;100313.14;;;17.12;37.32
66801;BME280;53703;50.326;19.122;2023-02-10T01:58:01;100312.39;;;17.13;37.28
66801;BME280;53703;50.326;19.122;2023-02-10T02:00:57;100311.49;;;17.18;37.21
66801;BME280;53703;50.326;19.122;2023-02-10T02:03:55;100305.77;;;17.17;37.24
66801;BME280;53703;50.326;19.122;2023-02-10T02:06:50;100302.81;;;17.15;37.39
66801;BME280;53703;50.326;19.122;2023-02-10T02:09:44;100295.73;;;17.10;37.46
66801;BME280;53703;50.326;19.122;2023-02-10T02:12:47;100293.41;;;17.14;37.37
66801;BME280;53703;50.326;19.122;2023-02-10T02:15:50;100292.09;;;17.17;37.07
66801;BME280;53703;50.326;19.122;2023-02-10T02:18:50;100297.47;;;17.15;37.55
66801;BME280;53703;50.326;19.122;2023-02-10T02:25:36;100284.41;;;17.14;37.39
66801;BME280;53703;50.326;19.122;2023-02-10T02:28:48;100271.43;;;17.15;37.38
66801;BME280;53703;50.326;19.122;2023-02-10T02:32:00;100279.12;;;17.17;37.19
66801;BME280;53703;50.326;19.122;2023-02-10T02:35:02;100280.48;;;17.19;37.25
66801;BME280;53703;50.326;19.122;2023-02-10T02:37:57;100285.38;;;17.19;37.17
66801;BME280;53703;50.326;19.122;2023-02-10T02:40:52;100281.38;;;17.18;37.16
66801;BME280;53703;50.326;19.122;2023-02-10T02:43:47;100279.14;;;17.19;37.20
66801;BME280;53703;50.326;19.122;2023-02-10T02:46:54;100277.39;;;17.21;37.16
66801;BME280;53703;50.326;19.122;2023-02-10T02:50:19;100273.35;;;17.22;36.96
66801;BME280;53703;50.326;19.122;2023-02-10T02:53:24;100280.48;;;17.17;37.14
66801;BME280;53703;50.326;19.122;2023-02-10T02:56:30;100275.91;;;17.24;37.10
66801;BME280;53703;50.326;19.122;2023-02-10T02:59:32;100273.00;;;17.23;37.13
66801;BME280;53703;50.326;19.122;2023-02-10T03:02:20;100276.50;;;17.22;37.03
66801;BME280;53703;50.326;19.122;2023-02-10T03:05:22;100275.12;;;17.19;37.15
66801;BME280;53703;50.326;19.122;2023-02-10T03:08:17;100279.20;;;17.16;36.98
66801;BME280;53703;50.326;19.122;2023-02-10T03:11:11;100279.95;;;17.14;37.28
66801;BME280;53703;50.326;19.122;2023-02-10T03:14:05;100280.91;;;17.15;37.18
66801;BME280;53703;50.326;19.122;2023-02-10T03:16:58;100280.59;;;17.15;37.10
66801;BME280;53703;50.326;19.122;2023-02-10T03:19:53;100280.02;;;17.13;37.11
66801;BME280;53703;50.326;19.122;2023-02-10T03:22:47;100282.38;;;17.14;37.12
66801;BME280;53703;50.326;19.122;2023-02-10T03:25:45;100282.73;;;17.10;37.19
66801;BME280;53703;50.326;19.122;2023-02-10T03:28:39;100281.05;;;17.11;37.03
66801;BME280;53703;50.326;19.122;2023-02-10T03:31:33;100275.77;;;17.10;37.21
66801;BME280;53703;50.326;19.122;2023-02-10T03:34:27;100273.95;;;17.12;36.92
66801;BME280;53703;50.326;19.122;2023-02-10T03:37:21;100279.80;;;17.10;37.04
66801;BME280;53703;50.326;19.122;2023-02-10T03:40:16;100277.81;;;17.04;37.32
66801;BME280;53703;50.326;19.122;2023-02-10T03:43:10;100276.23;;;17.06;37.23
66801;BME280;53703;50.326;19.122;2023-02-10T03:46:05;100280.71;;;17.04;37.41
66801;BME280;53703;50.326;19.122;2023-02-10T03:48:59;100285.63;;;17.04;37.40
66801;BME280;53703;50.326;19.122;2023-02-10T03:51:53;100282.81;;;17.05;37.24
66801;BME280;53703;50.326;19.122;2023-02-10T03:54:47;100286.20;;;17.05;37.36
66801;BME280;53703;50.326;19.122;2023-02-10T03:57:41;100290.02;;;17.07;37.13
66801;BME280;53703;50.326;19.122;2023-02-10T04:00:35;100291.48;;;17.05;37.24
66801;BME280;53703;50.326;19.122;2023-02-10T04:03:29;100294.48;;;17.02;37.40
66801;BME280;53703;50.326;19.122;2023-02-10T04:06:23;100294.06;;;17.00;37.12
66801;BME280;53703;50.326;19.122;2023-02-10T04:09:17;100298.03;;;17.01;37.34
66801;BME280;53703;50.326;19.122;2023-02-10T04:12:11;100295.46;;;17.03;37.06
66801;BME280;53703;50.326;19.122;2023-02-10T04:15:06;100296.12;;;17.04;37.17
66801;BME280;53703;50.326;19.122;2023-02-10T04:18:01;100293.59;;;17.03;37.07
66801;BME280;53703;50.326;19.122;2023-02-10T04:20:54;100295.16;;;17.00;37.19
66801;BME280;53703;50.326;19.122;2023-02-10T04:23:48;100294.48;;;16.98;37.15
66801;BME280;53703;50.326;19.122;2023-02-10T04:26:42;100289.89;;;16.97;37.24
66801;BME280;53703;50.326;19.122;2023-02-10T04:29:36;100291.20;;;17.04;37.23
66801;BME280;53703;50.326;19.122;2023-02-10T04:32:33;100294.49;;;16.97;37.38
66801;BME280;53703;50.326;19.122;2023-02-10T04:35:26;100290.66;;;16.92;37.38
66801;BME280;53703;50.326;19.122;2023-02-10T04:38:20;100293.11;;;16.98;37.05
66801;BME280;53703;50.326;19.122;2023-02-10T04:41:15;100296.66;;;16.97;37.26
66801;BME280;53703;50.326;19.122;2023-02-10T04:44:09;100304.45;;;16.92;37.23
66801;BME280;53703;50.326;19.122;2023-02-10T04:47:03;100309.36;;;16.89;37.37
66801;BME280;53703;50.326;19.122;2023-02-10T04:49:57;100310.89;;;16.89;37.28
66801;BME280;53703;50.326;19.122;2023-02-10T04:52:51;100309.98;;;16.88;37.26
66801;BME280;53703;50.326;19.122;2023-02-10T04:55:44;100307.00;;;16.88;36.92
66801;BME280;53703;50.326;19.122;2023-02-10T04:58:39;100307.20;;;16.83;37.35
66801;BME280;53703;50.326;19.122;2023-02-10T05:01:33;100308.89;;;16.85;37.13
66801;BME280;53703;50.326;19.122;2023-02-10T05:04:27;100303.02;;;16.85;37.32
66801;BME280;53703;50.326;19.122;2023-02-10T05:07:22;100307.67;;;16.81;37.33
66801;BME280;53703;50.326;19.122;2023-02-10T05:10:16;100307.94;;;16.81;37.20
66801;BME280;53703;50.326;19.122;2023-02-10T05:13:10;100313.77;;;16.79;37.38
66801;BME280;53703;50.326;19.122;2023-02-10T05:16:05;100315.29;;;16.80;37.27
66801;BME280;53703;50.326;19.122;2023-02-10T05:18:59;100318.19;;;16.79;37.32
66801;BME280;53703;50.326;19.122;2023-02-10T05:21:53;100313.11;;;16.78;37.13
66801;BME280;53703;50.326;19.122;2023-02-10T05:24:47;100317.17;;;16.73;37.39
66801;BME280;53703;50.326;19.122;2023-02-10T05:27:44;100320.02;;;16.75;37.26
66801;BME280;53703;50.326;19.122;2023-02-10T05:30:38;100323.11;;;16.74;37.15
66801;BME280;53703;50.326;19.122;2023-02-10T05:33:32;100330.88;;;16.70;37.24
66801;BME280;53703;50.326;19.122;2023-02-10T05:36:26;100332.86;;;16.67;37.25
66801;BME280;53703;50.326;19.122;2023-02-10T05:39:20;100341.47;;;16.67;37.31
66801;BME280;53703;50.326;19.122;2023-02-10T05:42:17;100354.70;;;16.67;37.16
66801;BME280;53703;50.326;19.122;2023-02-10T05:45:11;100354.30;;;16.61;37.22
66801;BME280;53703;50.326;19.122;2023-02-10T05:48:05;100349.77;;;16.61;37.17
66801;BME280;53703;50.326;19.122;2023-02-10T05:51:00;100345.65;;;16.61;37.07
66801;BME280;53703;50.326;19.122;2023-02-10T05:53:54;100346.36;;;16.58;37.14
66801;BME280;53703;50.326;19.122;2023-02-10T05:56:48;100345.16;;;16.57;37.33
66801;BME280;53703;50.326;19.122;2023-02-10T05:59:43;100346.48;;;16.53;37.25
66801;BME280;53703;50.326;19.122;2023-02-10T06:02:37;100350.34;;;16.52;37.40
66801;BME280;53703;50.326;19.122;2023-02-10T06:05:31;100347.27;;;16.52;37.23
66801;BME280;53703;50.326;19.122;2023-02-10T06:08:25;100348.27;;;16.50;37.38
66801;BME280;53703;50.326;19.122;2023-02-10T06:11:19;100351.79;;;16.47;37.39
66801;BME280;53703;50.326;19.122;2023-02-10T06:14:13;100342.64;;;16.39;37.07
66801;BME280;53703;50.326;19.122;2023-02-10T06:17:08;100348.20;;;16.36;37.38
66801;BME280;53703;50.326;19.122;2023-02-10T06:20:02;100355.78;;;16.38;37.63
66801;BME280;53703;50.326;19.122;2023-02-10T06:22:57;100364.20;;;16.41;37.47
66801;BME280;53703;50.326;19.122;2023-02-10T06:25:51;100361.07;;;16.38;37.49
66801;BME280;53703;50.326;19.122;2023-02-10T06:28:47;100362.96;;;16.37;37.46
66801;BME280;53703;50.326;19.122;2023-02-10T06:31:40;100367.75;;;16.44;37.83
66801;BME280;53703;50.326;19.122;2023-02-10T06:34:34;100369.53;;;16.36;37.59
66801;BME280;53703;50.326;19.122;2023-02-10T06:37:28;100374.77;;;16.44;37.53
66801;BME280;53703;50.326;19.122;2023-02-10T06:40:22;100379.13;;;16.34;37.40
66801;BME280;53703;50.326;19.122;2023-02-10T06:43:16;100380.31;;;16.32;37.45
66801;BME280;53703;50.326;19.122;2023-02-10T06:46:00;100381.40;;;16.30;37.43
66801;BME280;53703;50.326;19.122;2023-02-10T06:48:54;100378.33;;;16.28;37.57
66801;BME280;53703;50.326;19.122;2023-02-10T06:51:48;100374.82;;;16.28;37.46
66801;BME280;53703;50.326;19.122;2023-02-10T06:54:42;100374.34;;;16.30;37.57
66801;BME280;53703;50.326;19.122;2023-02-10T06:57:36;100372.39;;;16.24;37.52
66801;BME280;53703;50.326;19.122;2023-02-10T07:00:30;100378.84;;;16.23;37.66
66801;BME280;53703;50.326;19.122;2023-02-10T07:03:25;100383.69;;;16.22;37.57
66801;BME280;53703;50.326;19.122;2023-02-10T07:06:19;100387.91;;;16.19;37.41
66801;BME280;53703;50.326;19.122;2023-02-10T07:09:13;100391.95;;;16.18;37.31
66801;BME280;53703;50.326;19.122;2023-02-10T07:12:07;100397.05;;;16.16;37.28
66801;BME280;53703;50.326;19.122;2023-02-10T07:14:50;100392.79;;;16.18;37.17
66801;BME280;53703;50.326;19.122;2023-02-10T07:17:44;100386.83;;;16.19;37.32
66801;BME280;53703;50.326;19.122;2023-02-10T07:20:38;100381.27;;;16.22;37.23
66801;BME280;53703;50.326;19.122;2023-02-10T07:23:32;100387.98;;;16.15;37.24
66801;BME280;53703;50.326;19.122;2023-02-10T07:26:28;100392.86;;;16.11;37.43
66801;BME280;53703;50.326;19.122;2023-02-10T07:29:22;100394.92;;;16.09;37.43
66801;BME280;53703;50.326;19.122;2023-02-10T07:32:16;100396.61;;;16.12;37.16
66801;BME280;53703;50.326;19.122;2023-02-10T07:35:10;100396.26;;;16.13;37.22
66801;BME280;53703;50.326;19.122;2023-02-10T07:38:04;100388.84;;;16.16;37.14
66801;BME280;53703;50.326;19.122;2023-02-10T07:40:59;100391.30;;;16.19;37.03
66801;BME280;53703;50.326;19.122;2023-02-10T07:43:53;100390.61;;;16.24;37.10
66801;BME280;53703;50.326;19.122;2023-02-10T07:46:46;100386.48;;;16.73;37.03
66801;BME280;53703;50.326;19.122;2023-02-10T07:49:40;100389.13;;;17.68;34.81
66801;BME280;53703;50.326;19.122;2023-02-10T07:52:34;100393.67;;;19.61;31.36
66801;BME280;53703;50.326;19.122;2023-02-10T07:55:28;100397.52;;;20.46;29.98
66801;BME280;53703;50.326;19.122;2023-02-10T07:58:22;100398.61;;;19.33;31.61
66801;BME280;53703;50.326;19.122;2023-02-10T08:01:16;100398.95;;;16.98;34.85
66801;BME280;53703;50.326;19.122;2023-02-10T08:04:10;100402.08;;;16.81;36.47
66801;BME280;53703;50.326;19.122;2023-02-10T08:07:03;100408.27;;;16.72;36.35
66801;BME280;53703;50.326;19.122;2023-02-10T08:09:57;100408.66;;;16.76;36.29
66801;BME280;53703;50.326;19.122;2023-02-10T08:12:51;100403.89;;;16.42;36.79
66801;BME280;53703;50.326;19.122;2023-02-10T08:15:45;100401.35;;;16.34;37.02
66801;BME280;53703;50.326;19.122;2023-02-10T08:18:39;100403.35;;;16.37;36.68
66801;BME280;53703;50.326;19.122;2023-02-10T08:21:33;100407.79;;;16.51;36.57
66801;BME280;53703;50.326;19.122;2023-02-10T08:24:27;100414.60;;;16.53;36.37
66801;BME280;53703;50.326;19.122;2023-02-10T08:27:21;100423.67;;;16.58;36.43
66801;BME280;53703;50.326;19.122;2023-02-10T08:30:15;100432.66;;;16.76;37.56
66801;BME280;53703;50.326;19.122;2023-02-10T08:33:09;100432.19;;;16.62;40.10
66801;BME280;53703;50.326;19.122;2023-02-10T08:36:09;100438.48;;;16.19;40.40
66801;BME280;53703;50.326;19.122;2023-02-10T08:38:44;100436.23;;;14.67;39.96
66801;BME280;53703;50.326;19.122;2023-02-10T08:41:38;100431.09;;;15.06;34.88
66801;BME280;53703;50.326;19.122;2023-02-10T08:44:33;100428.95;;;15.66;37.74
66801;BME280;53703;50.326;19.122;2023-02-10T08:47:26;100432.63;;;15.84;38.64
66801;BME280;53703;50.326;19.122;2023-02-10T08:50:20;100433.07;;;16.16;37.56
66801;BME280;53703;50.326;19.122;2023-02-10T08:53:14;100427.91;;;15.95;37.71
66801;BME280;53703;50.326;19.122;2023-02-10T08:56:10;100425.30;;;16.17;37.29
66801;BME280;53703;50.326;19.122;2023-02-10T08:59:06;100426.73;;;16.17;37.19
66801;BME280;53703;50.326;19.122;2023-02-10T09:02:00;100422.19;;;16.37;37.12
66801;BME280;53703;50.326;19.122;2023-02-10T09:04:54;100427.70;;;16.41;36.92
66801;BME280;53703;50.326;19.122;2023-02-10T09:08:01;100429.81;;;16.16;37.29
66801;BME280;53703;50.326;19.122;2023-02-10T09:10:56;100421.00;;;16.03;37.74
66801;BME280;53703;50.326;19.122;2023-02-10T09:13:51;100423.15;;;16.26;37.52
66801;BME280;53703;50.326;19.122;2023-02-10T09:16:45;100423.70;;;16.13;37.42
66801;BME280;53703;50.326;19.122;2023-02-10T09:19:39;100428.69;;;15.99;37.75
66801;BME280;53703;50.326;19.122;2023-02-10T09:22:50;100430.28;;;16.19;37.60
66801;BME280;53703;50.326;19.122;2023-02-10T09:25:51;100434.61;;;16.07;37.64
66801;BME280;53703;50.326;19.122;2023-02-10T09:28:45;100434.08;;;16.28;37.41
66801;BME280;53703;50.326;19.122;2023-02-10T09:31:39;100429.34;;;16.01;37.80
66801;BME280;53703;50.326;19.122;2023-02-10T09:34:33;100426.81;;;15.87;38.01
66801;BME280;53703;50.326;19.122;2023-02-10T09:37:27;100426.86;;;16.00;37.74
66801;BME280;53703;50.326;19.122;2023-02-10T09:40:25;100428.53;;;16.08;37.63
66801;BME280;53703;50.326;19.122;2023-02-10T09:43:18;100427.29;;;15.90;37.69
66801;BME280;53703;50.326;19.122;2023-02-10T09:46:20;100423.33;;;15.84;37.81
66801;BME280;53703;50.326;19.122;2023-02-10T09:49:54;100422.41;;;15.88;37.70
66801;BME280;53703;50.326;19.122;2023-02-10T09:53:04;100434.92;;;16.09;37.35
66801;BME280;53703;50.326;19.122;2023-02-10T09:56:05;100446.12;;;15.78;37.44
66801;BME280;53703;50.326;19.122;2023-02-10T09:59:00;100448.52;;;15.69;37.70
66801;BME280;53703;50.326;19.122;2023-02-10T10:01:58;100446.39;;;15.66;37.44
66801;BME280;53703;50.326;19.122;2023-02-10T10:04:56;100438.52;;;15.65;37.55
66801;BME280;53703;50.326;19.122;2023-02-10T10:07:54;100430.67;;;15.64;37.42
66801;BME280;53703;50.326;19.122;2023-02-10T10:10:50;100422.59;;;15.58;37.51
66801;BME280;53703;50.326;19.122;2023-02-10T10:13:27;100413.43;;;15.54;37.80
66801;BME280;53703;50.326;19.122;2023-02-10T10:19:39;100413.42;;;16.14;37.95
66801;BME280;53703;50.326;19.122;2023-02-10T10:22:48;100413.20;;;16.19;37.75
66801;BME280;53703;50.326;19.122;2023-02-10T10:25:57;100417.89;;;15.86;38.71
66801;BME280;53703;50.326;19.122;2023-02-10T10:29:13;100423.92;;;15.79;38.44
66801;BME280;53703;50.326;19.122;2023-02-10T10:32:16;100418.11;;;15.77;39.02
66801;BME280;53703;50.326;19.122;2023-02-10T10:34:59;100416.40;;;15.77;39.12
66801;BME280;53703;50.326;19.122;2023-02-10T10:37:42;100419.23;;;15.75;38.43
66801;BME280;53703;50.326;19.122;2023-02-10T10:40:30;100418.66;;;15.71;39.11
66801;BME280;53703;50.326;19.122;2023-02-10T10:43:29;100421.90;;;15.55;43.65
66801;BME280;53703;50.326;19.122;2023-02-10T10:46:15;100421.31;;;15.47;42.68
66801;BME280;53703;50.326;19.122;2023-02-10T10:48:59;100416.67;;;15.48;42.57
66801;BME280;53703;50.326;19.122;2023-02-10T10:51:53;100411.80;;;15.50;41.87
66801;BME280;53703;50.326;19.122;2023-02-10T10:54:47;100416.14;;;15.33;41.98
66801;BME280;53703;50.326;19.122;2023-02-10T10:57:41;100412.66;;;15.28;41.60
66801;BME280;53703;50.326;19.122;2023-02-10T11:00:35;100412.08;;;15.25;41.54
66801;BME280;53703;50.326;19.122;2023-02-10T11:03:25;100406.93;;;15.22;41.94
66801;BME280;53703;50.326;19.122;2023-02-10T11:06:20;100403.84;;;15.17;41.89
66801;BME280;53703;50.326;19.122;2023-02-10T11:09:26;100407.27;;;15.22;41.42
66801;BME280;53703;50.326;19.122;2023-02-10T11:12:06;100408.16;;;15.22;41.26
66801;BME280;53703;50.326;19.122;2023-02-10T11:15:36;100408.98;;;15.20;41.36
66801;BME280;53703;50.326;19.122;2023-02-10T11:18:29;100403.74;;;15.35;43.33
66801;BME280;53703;50.326;19.122;2023-02-10T11:21:43;100402.95;;;15.33;40.97
66801;BME280;53703;50.326;19.122;2023-02-10T11:24:47;100403.63;;;15.36;40.28
66801;BME280;53703;50.326;19.122;2023-02-10T11:27:49;100398.11;;;15.38;39.53
66801;BME280;53703;50.326;19.122;2023-02-10T11:30:53;100386.48;;;15.35;40.14
66801;BME280;53703;50.326;19.122;2023-02-10T11:33:58;100383.89;;;15.35;40.11
66801;BME280;53703;50.326;19.122;2023-02-10T11:36:54;100380.11;;;15.26;40.17
66801;BME280;53703;50.326;19.122;2023-02-10T11:39:42;100377.76;;;15.24;40.06
66801;BME280;53703;50.326;19.122;2023-02-10T11:42:37;100386.87;;;15.33;39.96
66801;BME280;53703;50.326;19.122;2023-02-10T11:45:33;100388.21;;;15.31;39.87
66801;BME280;53703;50.326;19.122;2023-02-10T11:48:29;100388.98;;;15.25;39.99
66801;BME280;53703;50.326;19.122;2023-02-10T11:51:23;100381.71;;;15.25;39.96
66801;BME280;53703;50.326;19.122;2023-02-10T11:54:20;100377.68;;;15.22;39.72
66801;BME280;53703;50.326;19.122;2023-02-10T11:57:33;100376.20;;;15.21;39.91
66801;BME280;53703;50.326;19.122;2023-02-10T12:00:52;100376.49;;;15.20;39.84
66801;BME280;53703;50.326;19.122;2023-02-10T12:04:06;100387.90;;;15.16;39.82
66801;BME280;53703;50.326;19.122;2023-02-10T12:07:23;100389.13;;;15.14;39.80
66801;BME280;53703;50.326;19.122;2023-02-10T12:10:25;100382.95;;;15.15;39.76
66801;BME280;53703;50.326;19.122;2023-02-10T12:13:34;100382.52;;;15.09;39.87
66801;BME280;53703;50.326;19.122;2023-02-10T12:16:38;100383.75;;;15.12;39.90
66801;BME280;53703;50.326;19.122;2023-02-10T12:19:58;100380.23;;;15.20;39.84
66801;BME280;53703;50.326;19.122;2023-02-10T12:23:18;100379.90;;;15.12;40.31
66801;BME280;53703;50.326;19.122;2023-02-10T12:26:27;100385.67;;;15.12;40.20
66801;BME280;53703;50.326;19.122;2023-02-10T12:29:37;100389.16;;;15.03;40.34
66801;BME280;53703;50.326;19.122;2023-02-10T12:32:47;100383.69;;;15.07;40.07
66801;BME280;53703;50.326;19.122;2023-02-10T12:35:52;100387.91;;;15.01;40.16
66801;BME280;53703;50.326;19.122;2023-02-10T12:38:59;100387.14;;;15.01;40.14
66801;BME280;53703;50.326;19.122;2023-02-10T12:42:07;100387.11;;;14.96;40.13
66801;BME280;53703;50.326;19.122;2023-02-10T12:45:14;100397.31;;;15.01;40.02
66801;BME280;53703;50.326;19.122;2023-02-10T12:48:23;100402.27;;;15.00;39.65
66801;BME280;53703;50.326;19.122;2023-02-10T12:51:45;100406.20;;;14.96;39.49
66801;BME280;53703;50.326;19.122;2023-02-10T12:54:48;100405.80;;;14.99;40.05
66801;BME280;53703;50.326;19.122;2023-02-10T12:57:39;100402.98;;;15.07;40.04
66801;BME280;53703;50.326;19.122;2023-02-10T13:00:37;100397.88;;;15.13;40.33
66801;BME280;53703;50.326;19.122;2023-02-10T13:03:37;100397.26;;;15.22;40.66
66801;BME280;53703;50.326;19.122;2023-02-10T13:06:36;100396.62;;;15.19;41.80
66801;BME280;53703;50.326;19.122;2023-02-10T13:09:42;100399.15;;;15.11;41.87
66801;BME280;53703;50.326;19.122;2023-02-10T13:12:41;100397.02;;;15.10;41.80
66801;BME280;53703;50.326;19.122;2023-02-10T13:15:39;100398.73;;;15.09;41.31
66801;BME280;53703;50.326;19.122;2023-02-10T13:18:42;100397.49;;;15.07;41.50
66801;BME280;53703;50.326;19.122;2023-02-10T13:21:43;100398.77;;;15.11;41.36
66801;BME280;53703;50.326;19.122;2023-02-10T13:24:46;100398.66;;;15.25;41.69
66801;BME280;53703;50.326;19.122;2023-02-10T13:27:55;100397.02;;;15.24;41.74
66801;BME280;53703;50.326;19.122;2023-02-10T13:31:18;100395.56;;;15.13;41.35
66801;BME280;53703;50.326;19.122;2023-02-10T13:34:21;100401.90;;;15.11;41.49
66801;BME280;53703;50.326;19.122;2023-02-10T13:37:22;100405.88;;;15.18;41.24
66801;BME280;53703;50.326;19.122;2023-02-10T13:40:24;100410.56;;;15.15;40.88
66801;BME280;53703;50.326;19.122;2023-02-10T13:43:30;100421.44;;;15.19;41.47
66801;BME280;53703;50.326;19.122;2023-02-10T13:46:28;100419.30;;;15.17;41.04
66801;BME280;53703;50.326;19.122;2023-02-10T13:49:24;100425.75;;;15.16;40.76
66801;BME280;53703;50.326;19.122;2023-02-10T13:52:20;100427.52;;;15.15;40.92
66801;BME280;53703;50.326;19.122;2023-02-10T13:55:43;100436.60;;;15.21;40.86
66801;BME280;53703;50.326;19.122;2023-02-10T13:58:58;100431.49;;;15.20;40.49
66801;BME280;53703;50.326;19.122;2023-02-10T14:02:15;100426.30;;;15.23;40.14
66801;BME280;53703;50.326;19.122;2023-02-10T14:08:33;100429.48;;;15.29;40.03
66801;BME280;53703;50.326;19.122;2023-02-10T14:11:39;100426.45;;;15.30;39.78
66801;BME280;53703;50.326;19.122;2023-02-10T14:14:36;100423.60;;;15.28;40.07
66801;BME280;53703;50.326;19.122;2023-02-10T14:17:30;100425.77;;;15.27;40.12
66801;BME280;53703;50.326;19.122;2023-02-10T14:20:47;100427.23;;;15.35;40.32
66801;BME280;53703;50.326;19.122;2023-02-10T14:23:55;100435.07;;;15.33;40.24
66801;BME280;53703;50.326;19.122;2023-02-10T14:26:51;100437.05;;;15.27;40.15
66801;BME280;53703;50.326;19.122;2023-02-10T14:29:50;100434.59;;;15.30;40.07
66801;BME280;53703;50.326;19.122;2023-02-10T14:32:46;100434.45;;;15.36;39.77
66801;BME280;53703;50.326;19.122;2023-02-10T14:35:50;100431.48;;;15.34;39.86
66801;BME280;53703;50.326;19.122;2023-02-10T14:38:51;100429.99;;;15.34;39.87
66801;BME280;53703;50.326;19.122;2023-02-10T14:41:45;100424.20;;;15.37;39.71
66801;BME280;53703;50.326;19.122;2023-02-10T14:44:43;100429.70;;;15.37;39.78
66801;BME280;53703;50.326;19.122;2023-02-10T14:47:44;100428.69;;;15.39;39.98
66801;BME280;53703;50.326;19.122;2023-02-10T14:50:41;100434.15;;;15.51;40.08
66801;BME280;53703;50.326;19.122;2023-02-10T14:54:06;100435.73;;;15.60;41.29
66801;BME280;53703;50.326;19.122;2023-02-10T14:57:14;100436.80;;;15.74;41.40
66801;BME280;53703;50.326;19.122;2023-02-10T15:00:17;100436.11;;;15.66;40.99
66801;BME280;53703;50.326;19.122;2023-02-10T15:03:14;100437.74;;;15.73;41.15
66801;BME280;53703;50.326;19.122;2023-02-10T15:06:08;100442.84;;;15.76;41.03
66801;BME280;53703;50.326;19.122;2023-02-10T15:09:05;100443.36;;;15.77;41.35
66801;BME280;53703;50.326;19.122;2023-02-10T15:12:12;100443.98;;;15.94;40.74
66801;BME280;53703;50.326;19.122;2023-02-10T15:15:25;100446.83;;;16.03;40.55
66801;BME280;53703;50.326;19.122;2023-02-10T15:18:24;100443.44;;;16.10;40.61
66801;BME280;53703;50.326;19.122;2023-02-10T15:21:33;100442.30;;;16.14;41.76
66801;BME280;53703;50.326;19.122;2023-02-10T15:24:32;100444.79;;;16.04;45.89
66801;BME280;53703;50.326;19.122;2023-02-10T15:27:27;100442.62;;;16.11;44.81